createdAt,value
2022-12-31T00:01:30.963Z,13.50
2022-12-31T00:03:58.189Z,13.60
2022-12-31T00:06:30.726Z,13.50
2022-12-31T00:08:59.469Z,13.50
2022-12-31T00:11:27.954Z,13.50
2022-12-31T00:13:55.251Z,13.50
2022-12-31T00:16:30.528Z,13.60
2022-12-31T00:18:59.281Z,13.50
2022-12-31T00:21:30.669Z,13.60
2022-12-31T00:23:58.232Z,13.60
2022-12-31T00:26:28.373Z,13.60
2022-12-31T00:28:56.482Z,13.60
2022-12-31T00:31:29.701Z,13.60
2022-12-31T00:33:57.064Z,13.60
2022-12-31T00:36:26.464Z,13.60
2022-12-31T00:38:54.869Z,13.60
2022-12-31T00:41:22.738Z,13.60
2022-12-31T00:43:49.789Z,13.60
2022-12-31T00:46:17.318Z,13.60
2022-12-31T00:48:44.506Z,13.50
2022-12-31T00:51:14.233Z,13.50
2022-12-31T00:53:41.097Z,13.50
2022-12-31T00:56:12.184Z,13.50
2022-12-31T00:58:39.248Z,13.50
2022-12-31T01:01:13.198Z,13.50
2022-12-31T01:03:40.127Z,13.50
2022-12-31T01:06:07.480Z,13.40
2022-12-31T01:08:34.732Z,13.40
2022-12-31T01:11:22.240Z,13.40
2022-12-31T01:13:51.214Z,13.40
2022-12-31T01:16:20.776Z,13.40
2022-12-31T01:18:48.334Z,13.40
2022-12-31T01:21:15.729Z,13.40
2022-12-31T01:23:42.778Z,13.50
2022-12-31T01:26:11.630Z,13.40
2022-12-31T01:28:38.776Z,13.40
2022-12-31T01:31:11.399Z,13.40
2022-12-31T01:33:38.556Z,13.40
2022-12-31T01:36:14.170Z,13.40
2022-12-31T01:38:41.251Z,13.40
2022-12-31T01:41:12.883Z,13.30
2022-12-31T01:43:50.073Z,13.30
2022-12-31T01:46:28.332Z,13.40
2022-12-31T01:49:00.172Z,13.30
2022-12-31T01:51:29.927Z,13.40
2022-12-31T01:53:57.487Z,13.30
2022-12-31T01:56:24.515Z,13.30
2022-12-31T01:58:53.665Z,13.30
2022-12-31T02:01:26.562Z,13.30
2022-12-31T02:03:54.441Z,13.30
2022-12-31T02:06:42.914Z,13.30
2022-12-31T02:09:11.035Z,13.30
2022-12-31T02:11:38.162Z,13.20
2022-12-31T02:14:13.310Z,13.30
2022-12-31T02:16:49.358Z,13.20
2022-12-31T02:19:15.989Z,13.20
2022-12-31T02:21:52.364Z,13.20
2022-12-31T02:24:37.091Z,13.20
2022-12-31T02:27:19.631Z,13.20
2022-12-31T02:30:06.829Z,13.20
2022-12-31T02:32:57.162Z,13.20
2022-12-31T02:35:53.954Z,13.10
2022-12-31T02:38:42.979Z,13.10
2022-12-31T02:41:36.749Z,13.10
2022-12-31T02:44:23.248Z,13.10
2022-12-31T02:46:58.859Z,13.10
2022-12-31T02:49:47.576Z,13.00
2022-12-31T02:52:40.510Z,13.00
2022-12-31T02:55:37.954Z,13.00
2022-12-31T02:58:17.016Z,13.00
2022-12-31T03:01:09.317Z,12.90
2022-12-31T03:03:38.088Z,12.90
2022-12-31T03:06:08.475Z,12.90
2022-12-31T03:08:57.687Z,12.90
2022-12-31T03:11:43.171Z,12.90
2022-12-31T03:14:09.862Z,12.80
2022-12-31T03:16:36.588Z,12.80
2022-12-31T03:19:21.910Z,12.80
2022-12-31T03:22:07.449Z,12.80
2022-12-31T03:24:52.957Z,12.80
2022-12-31T03:27:19.643Z,12.80
2022-12-31T03:29:46.339Z,12.80
2022-12-31T03:32:13.038Z,12.70
2022-12-31T03:34:39.766Z,12.70
2022-12-31T03:37:06.443Z,12.70
2022-12-31T03:39:33.175Z,12.70
2022-12-31T03:41:59.861Z,12.70
2022-12-31T03:44:26.651Z,12.70
2022-12-31T03:46:53.319Z,12.70
2022-12-31T03:49:20.079Z,12.60
2022-12-31T03:51:46.747Z,12.60
2022-12-31T03:54:13.480Z,12.60
2022-12-31T03:56:40.149Z,12.60
2022-12-31T03:59:06.911Z,12.60
2022-12-31T04:01:33.808Z,12.60
2022-12-31T04:04:00.578Z,12.60
2022-12-31T04:06:27.302Z,12.60
2022-12-31T04:08:53.971Z,12.60
2022-12-31T04:11:21.159Z,12.60
2022-12-31T04:13:48.057Z,12.60
2022-12-31T04:16:14.830Z,12.50
2022-12-31T04:18:41.532Z,12.50
2022-12-31T04:21:08.242Z,12.50
2022-12-31T04:23:36.031Z,12.50
2022-12-31T04:26:02.786Z,12.50
2022-12-31T04:28:29.453Z,12.50
2022-12-31T04:30:56.158Z,12.50
2022-12-31T04:33:22.892Z,12.50
2022-12-31T04:35:49.572Z,12.50
2022-12-31T04:38:16.322Z,12.50
2022-12-31T04:41:04.118Z,12.50
2022-12-31T04:43:30.896Z,12.50
2022-12-31T04:45:57.712Z,12.50
2022-12-31T04:48:24.476Z,12.50
2022-12-31T04:50:51.490Z,12.50
2022-12-31T04:53:18.212Z,12.40
2022-12-31T04:55:46.136Z,12.50
2022-12-31T04:58:12.911Z,12.50
2022-12-31T05:00:39.605Z,12.50
2022-12-31T05:03:06.311Z,12.50
2022-12-31T05:05:33.029Z,12.50
2022-12-31T05:07:59.707Z,12.50
2022-12-31T05:10:26.540Z,12.50
2022-12-31T05:12:53.194Z,12.50
2022-12-31T05:15:19.919Z,12.50
2022-12-31T05:17:46.575Z,12.50
2022-12-31T05:20:19.210Z,12.50
2022-12-31T05:22:45.885Z,12.50
2022-12-31T05:25:12.634Z,12.50
2022-12-31T05:27:39.397Z,12.50
2022-12-31T05:30:07.206Z,12.50
2022-12-31T05:32:34.701Z,12.60
2022-12-31T05:35:01.720Z,12.60
2022-12-31T05:37:29.576Z,12.60
2022-12-31T05:39:56.681Z,12.60
2022-12-31T05:42:23.970Z,12.70
2022-12-31T05:44:50.860Z,12.70
2022-12-31T05:47:18.025Z,12.70
2022-12-31T05:49:44.720Z,12.70
2022-12-31T05:52:11.413Z,12.80
2022-12-31T05:54:38.093Z,12.80
2022-12-31T05:57:05.174Z,12.80
2022-12-31T05:59:32.252Z,12.90
2022-12-31T06:01:59.357Z,12.90
2022-12-31T06:04:26.705Z,12.90
2022-12-31T06:06:53.436Z,12.90
2022-12-31T06:09:20.463Z,12.90
2022-12-31T06:11:47.625Z,13.00
2022-12-31T06:14:14.926Z,13.00
2022-12-31T06:16:42.502Z,13.00
2022-12-31T06:19:09.756Z,13.00
2022-12-31T06:21:36.456Z,13.00
2022-12-31T06:24:03.300Z,13.10
2022-12-31T06:26:29.985Z,13.10
2022-12-31T06:28:56.735Z,13.10
2022-12-31T06:31:23.496Z,13.10
2022-12-31T06:33:50.207Z,13.10
2022-12-31T06:36:16.972Z,13.10
2022-12-31T06:38:44.261Z,13.10
2022-12-31T06:41:13.148Z,13.10
2022-12-31T06:43:41.315Z,13.20
2022-12-31T06:46:10.553Z,13.20
2022-12-31T06:48:38.041Z,13.20
2022-12-31T06:51:16.734Z,13.20
2022-12-31T06:53:45.223Z,13.30
2022-12-31T06:56:21.619Z,13.30
2022-12-31T06:58:49.187Z,13.30
2022-12-31T07:01:51.259Z,13.30
2022-12-31T07:04:46.108Z,13.40
2022-12-31T07:07:42.987Z,13.40
2022-12-31T07:10:29.239Z,13.50
2022-12-31T07:12:59.641Z,13.60
2022-12-31T07:16:10.584Z,13.60
2022-12-31T07:18:40.315Z,13.70
2022-12-31T07:21:13.613Z,13.80
2022-12-31T07:23:41.955Z,13.80
2022-12-31T07:26:35.408Z,13.90
2022-12-31T07:29:15.568Z,13.90
2022-12-31T07:32:00.606Z,14.00
2022-12-31T07:34:51.458Z,14.00
2022-12-31T07:37:39.083Z,14.10
2022-12-31T07:40:18.750Z,14.20
2022-12-31T07:43:14.329Z,14.20
2022-12-31T07:46:02.381Z,14.30
2022-12-31T07:48:29.732Z,14.30
2022-12-31T07:50:57.436Z,14.30
2022-12-31T07:53:25.163Z,14.30
2022-12-31T07:56:03.779Z,14.40
2022-12-31T07:58:47.495Z,14.40
2022-12-31T08:01:19.927Z,14.40
2022-12-31T08:04:20.456Z,14.50
2022-12-31T08:06:50.072Z,14.50
2022-12-31T08:09:51.854Z,14.50
2022-12-31T08:12:20.129Z,14.50
2022-12-31T08:14:48.595Z,14.50
2022-12-31T08:17:17.168Z,14.50
2022-12-31T08:19:45.777Z,14.50
2022-12-31T08:22:28.437Z,14.50
2022-12-31T08:25:05.319Z,14.50
2022-12-31T08:27:43.937Z,14.50
2022-12-31T08:30:15.151Z,14.50
2022-12-31T08:33:11.510Z,14.50
2022-12-31T08:36:15.836Z,14.50
2022-12-31T08:39:01.218Z,14.50
2022-12-31T08:41:50.813Z,14.40
2022-12-31T08:44:52.077Z,14.40
2022-12-31T08:47:46.718Z,14.40
2022-12-31T08:50:15.803Z,14.40
2022-12-31T08:52:42.763Z,14.30
2022-12-31T08:55:16.700Z,14.30
2022-12-31T08:58:04.162Z,14.30
2022-12-31T09:00:31.696Z,14.30
2022-12-31T09:03:26.075Z,14.30
2022-12-31T09:06:02.365Z,14.30
2022-12-31T09:08:50.882Z,14.20
2022-12-31T09:11:33.823Z,14.30
2022-12-31T09:14:50.146Z,14.30
2022-12-31T09:17:40.672Z,14.30
2022-12-31T09:20:43.288Z,14.30
2022-12-31T09:23:12.574Z,14.30
2022-12-31T09:26:00.928Z,14.30
2022-12-31T09:28:39.524Z,14.40
2022-12-31T09:31:17.268Z,14.40
2022-12-31T09:34:03.271Z,14.40
2022-12-31T09:36:41.319Z,14.40
2022-12-31T09:39:35.483Z,14.50
2022-12-31T09:42:20.939Z,14.50
2022-12-31T09:45:09.519Z,14.50
2022-12-31T09:48:19.733Z,14.60
2022-12-31T09:50:50.516Z,14.60
2022-12-31T09:53:17.227Z,14.60
2022-12-31T09:56:14.920Z,14.70
2022-12-31T09:58:45.033Z,14.70
2022-12-31T10:01:36.254Z,14.70
2022-12-31T10:04:36.851Z,14.80
2022-12-31T10:07:15.746Z,14.80
2022-12-31T10:10:01.464Z,14.90
2022-12-31T10:12:36.337Z,14.90
2022-12-31T10:15:40.283Z,15.00
2022-12-31T10:18:37.361Z,15.10
2022-12-31T10:21:22.561Z,15.20
2022-12-31T10:24:04.719Z,15.20
2022-12-31T10:26:53.431Z,15.30
2022-12-31T10:29:38.898Z,15.30
2022-12-31T10:32:14.563Z,15.40
2022-12-31T10:35:15.025Z,15.40
2022-12-31T10:38:05.105Z,15.40
2022-12-31T10:40:53.192Z,15.50
2022-12-31T10:43:54.408Z,15.50
2022-12-31T10:46:36.151Z,15.50
2022-12-31T10:49:41.523Z,15.50
2022-12-31T10:52:32.228Z,15.60
2022-12-31T10:55:24.847Z,15.60
2022-12-31T10:58:29.185Z,15.60
2022-12-31T11:01:11.093Z,15.70
2022-12-31T11:04:14.993Z,15.70
2022-12-31T11:07:00.242Z,15.70
2022-12-31T11:09:51.691Z,15.70
2022-12-31T11:12:40.252Z,15.80
2022-12-31T11:15:22.032Z,15.80
2022-12-31T11:18:30.315Z,15.70
2022-12-31T11:21:50.218Z,15.70
2022-12-31T11:24:40.711Z,15.70
2022-12-31T11:27:17.067Z,15.70
2022-12-31T11:30:02.171Z,15.70
2022-12-31T11:32:53.160Z,15.70
2022-12-31T11:35:41.327Z,15.70
2022-12-31T11:38:29.124Z,15.60
2022-12-31T11:41:14.529Z,15.70
2022-12-31T11:43:55.683Z,15.70
2022-12-31T11:46:42.628Z,15.70
2022-12-31T11:49:46.595Z,15.70
2022-12-31T11:52:46.997Z,15.70
2022-12-31T11:55:34.961Z,15.80
2022-12-31T11:58:29.082Z,15.80
2022-12-31T12:01:04.839Z,15.80
2022-12-31T12:03:32.242Z,15.90
2022-12-31T12:05:59.759Z,15.90
2022-12-31T12:08:30.279Z,15.90
2022-12-31T12:11:05.331Z,16.00
2022-12-31T12:13:32.115Z,16.00
2022-12-31T12:16:05.806Z,16.00
2022-12-31T12:19:16.545Z,16.00
2022-12-31T12:21:48.518Z,16.00
2022-12-31T12:24:51.979Z,16.00
2022-12-31T12:27:24.621Z,16.00
2022-12-31T12:29:51.391Z,16.00
2022-12-31T12:32:22.249Z,16.00
2022-12-31T12:34:50.040Z,16.00
2022-12-31T12:37:35.407Z,16.00
2022-12-31T12:40:17.921Z,16.00
2022-12-31T12:42:52.541Z,16.00
2022-12-31T12:45:22.162Z,16.00
2022-12-31T12:47:55.398Z,15.90
2022-12-31T12:50:36.048Z,16.00
2022-12-31T12:53:11.818Z,15.90
2022-12-31T12:56:06.320Z,15.90
2022-12-31T12:58:48.773Z,15.90
2022-12-31T13:01:24.037Z,15.90
2022-12-31T13:04:35.378Z,15.90
2022-12-31T13:07:14.422Z,15.90
2022-12-31T13:10:16.622Z,15.90
2022-12-31T13:16:04.364Z,16.00
2022-12-31T13:18:54.873Z,15.90
2022-12-31T13:21:35.667Z,16.00
2022-12-31T13:24:19.345Z,15.90
2022-12-31T13:27:12.547Z,15.90
2022-12-31T13:29:42.395Z,15.90
2022-12-31T13:32:17.035Z,15.90
2022-12-31T13:34:46.124Z,15.90
2022-12-31T13:37:27.583Z,15.80
2022-12-31T13:40:07.426Z,15.80
2022-12-31T13:42:45.744Z,15.80
2022-12-31T13:45:24.733Z,15.80
2022-12-31T13:48:00.147Z,15.80
2022-12-31T13:50:55.019Z,15.80
2022-12-31T13:53:26.599Z,15.80
2022-12-31T13:56:09.319Z,15.80
2022-12-31T13:58:44.666Z,15.80
2022-12-31T14:01:33.716Z,15.80
2022-12-31T14:04:14.941Z,15.80
2022-12-31T14:06:53.219Z,15.80
2022-12-31T14:09:23.805Z,15.80
2022-12-31T14:12:18.314Z,15.80
2022-12-31T14:14:53.788Z,15.80
2022-12-31T14:17:58.675Z,15.80
2022-12-31T14:20:34.246Z,15.80
2022-12-31T14:23:30.121Z,15.80
2022-12-31T14:26:31.428Z,15.80
2022-12-31T14:29:25.231Z,15.80
2022-12-31T14:32:07.084Z,15.80
2022-12-31T14:34:41.179Z,15.80
2022-12-31T14:37:31.877Z,15.80
2022-12-31T14:40:09.586Z,15.70
2022-12-31T14:43:07.829Z,15.70
2022-12-31T14:45:53.057Z,15.70
2022-12-31T14:48:36.479Z,15.70
2022-12-31T14:51:04.289Z,15.70
2022-12-31T14:53:31.453Z,15.70
2022-12-31T14:56:00.677Z,15.70
2022-12-31T14:58:35.019Z,15.70
2022-12-31T15:01:26.420Z,15.60
2022-12-31T15:03:58.360Z,15.60
2022-12-31T15:06:54.421Z,15.60
2022-12-31T15:09:44.366Z,15.60
2022-12-31T15:12:23.142Z,15.60
2022-12-31T15:14:58.922Z,15.60
2022-12-31T15:18:07.453Z,15.60
2022-12-31T15:20:51.364Z,15.60
2022-12-31T15:23:23.966Z,15.60
2022-12-31T15:25:59.187Z,15.60
2022-12-31T15:28:38.085Z,15.60
2022-12-31T15:31:16.061Z,15.60
2022-12-31T15:33:56.279Z,15.60
2022-12-31T15:36:26.483Z,15.60
2022-12-31T15:39:12.694Z,15.70
2022-12-31T15:42:36.163Z,15.60
2022-12-31T15:44:55.001Z,15.70
2022-12-31T15:47:37.138Z,15.70
2022-12-31T15:50:13.539Z,15.70
2022-12-31T15:53:02.795Z,15.70
2022-12-31T15:55:41.667Z,15.70
2022-12-31T15:58:25.107Z,15.70
2022-12-31T16:01:13.859Z,15.80
2022-12-31T16:04:00.778Z,15.80
2022-12-31T16:06:33.670Z,15.80
2022-12-31T16:09:00.632Z,15.80
2022-12-31T16:11:30.435Z,15.80
2022-12-31T16:13:58.925Z,15.80
2022-12-31T16:16:33.242Z,15.80
2022-12-31T16:19:01.804Z,15.80
2022-12-31T16:21:32.923Z,15.80
2022-12-31T16:24:07.522Z,15.80
2022-12-31T16:26:49.670Z,15.90
2022-12-31T16:29:19.064Z,15.90
2022-12-31T16:31:47.203Z,15.90
2022-12-31T16:34:18.484Z,15.90
2022-12-31T16:37:06.638Z,15.80
2022-12-31T16:39:38.632Z,15.80
2022-12-31T16:42:14.247Z,15.80
2022-12-31T16:44:41.608Z,15.80
2022-12-31T16:47:15.173Z,15.80
2022-12-31T16:49:42.822Z,15.80
2022-12-31T16:52:22.499Z,15.80
2022-12-31T16:54:50.137Z,15.80
2022-12-31T16:57:23.831Z,15.80
2022-12-31T16:59:55.973Z,15.90
2022-12-31T17:02:30.509Z,15.80
2022-12-31T17:04:57.285Z,15.80
2022-12-31T17:07:39.915Z,15.80
2022-12-31T17:10:06.637Z,15.80
2022-12-31T17:12:53.089Z,15.80
2022-12-31T17:15:38.280Z,15.80
2022-12-31T17:18:05.973Z,15.80
2022-12-31T17:20:33.967Z,15.70
2022-12-31T17:23:06.037Z,15.70
2022-12-31T17:25:36.032Z,15.80
2022-12-31T17:28:18.394Z,15.70
2022-12-31T17:30:45.179Z,15.70
2022-12-31T17:33:11.835Z,15.70
2022-12-31T17:35:43.306Z,15.70
2022-12-31T17:38:22.353Z,15.70
2022-12-31T17:41:13.839Z,15.70
2022-12-31T17:43:41.250Z,15.70
2022-12-31T17:46:16.495Z,15.70
2022-12-31T17:48:46.096Z,15.70
2022-12-31T17:51:12.835Z,15.70
2022-12-31T17:53:39.508Z,15.70
2022-12-31T17:56:14.544Z,15.70
2022-12-31T17:58:52.462Z,15.70
2022-12-31T18:01:21.898Z,15.70
2022-12-31T18:03:48.803Z,15.60
2022-12-31T18:06:17.228Z,15.60
2022-12-31T18:08:44.141Z,15.70
2022-12-31T18:11:16.543Z,15.60
2022-12-31T18:13:43.550Z,15.60
2022-12-31T18:16:10.393Z,15.60
2022-12-31T18:18:39.956Z,15.60
2022-12-31T18:21:13.314Z,15.60
2022-12-31T18:23:48.460Z,15.60
2022-12-31T18:26:20.622Z,15.60
2022-12-31T18:28:48.513Z,15.60
2022-12-31T18:31:21.574Z,15.60
2022-12-31T18:33:49.348Z,15.60
2022-12-31T18:36:17.603Z,15.60
2022-12-31T18:38:44.410Z,15.60
2022-12-31T18:41:19.307Z,15.60
2022-12-31T18:43:46.181Z,15.60
2022-12-31T18:46:16.004Z,15.60
2022-12-31T18:48:42.864Z,15.60
2022-12-31T18:51:18.951Z,15.60
2022-12-31T18:53:46.080Z,15.60
2022-12-31T18:56:15.852Z,15.60
2022-12-31T18:58:42.957Z,15.60
2022-12-31T19:01:25.501Z,15.60
2022-12-31T19:03:52.550Z,15.60
2022-12-31T19:06:19.329Z,15.60
2022-12-31T19:08:46.081Z,15.60
2022-12-31T19:11:16.450Z,15.60
2022-12-31T19:13:43.283Z,15.70
2022-12-31T19:16:10.503Z,15.60
2022-12-31T19:18:37.463Z,15.60
2022-12-31T19:21:04.855Z,15.60
2022-12-31T19:23:32.308Z,15.60
2022-12-31T19:25:59.215Z,15.60
2022-12-31T19:28:27.622Z,15.70
2022-12-31T19:30:54.936Z,15.70
2022-12-31T19:33:22.065Z,15.70
2022-12-31T19:35:49.129Z,15.70
2022-12-31T19:38:25.008Z,15.70
2022-12-31T19:40:53.256Z,15.60
2022-12-31T19:43:21.757Z,15.60
2022-12-31T19:45:50.180Z,15.60
2022-12-31T19:48:19.459Z,15.60
2022-12-31T19:50:49.249Z,15.60
2022-12-31T19:53:19.135Z,15.60
2022-12-31T19:55:46.274Z,15.60
2022-12-31T19:58:21.857Z,15.60
2022-12-31T20:00:55.671Z,15.60
2022-12-31T20:03:25.577Z,15.60
2022-12-31T20:06:01.873Z,15.50
2022-12-31T20:08:28.564Z,15.60
2022-12-31T20:10:58.751Z,15.50
2022-12-31T20:13:27.001Z,15.60
2022-12-31T20:15:54.554Z,15.60
2022-12-31T20:18:22.939Z,15.60
2022-12-31T20:20:55.523Z,15.60
2022-12-31T20:23:22.876Z,15.60
2022-12-31T20:26:01.823Z,15.60
2022-12-31T20:28:28.940Z,15.60
2022-12-31T20:30:55.863Z,15.60
2022-12-31T20:33:22.718Z,15.60
2022-12-31T20:35:49.836Z,15.60
2022-12-31T20:38:16.628Z,15.70
2022-12-31T20:40:46.858Z,15.70
2022-12-31T20:43:14.413Z,15.70
2022-12-31T20:45:41.707Z,15.70
2022-12-31T20:48:08.544Z,15.70
2022-12-31T20:50:35.290Z,15.70
2022-12-31T20:53:03.081Z,15.80
2022-12-31T20:55:30.852Z,15.80
2022-12-31T20:57:57.632Z,15.80
2022-12-31T21:00:24.425Z,15.80
2022-12-31T21:03:00.368Z,15.80
2022-12-31T21:05:33.604Z,15.80
2022-12-31T21:08:00.440Z,15.90
2022-12-31T21:10:27.184Z,15.90
2022-12-31T21:12:53.892Z,15.90
2022-12-31T21:15:21.618Z,15.90
2022-12-31T21:17:48.352Z,15.90
2022-12-31T21:20:15.153Z,15.90
2022-12-31T21:22:41.964Z,15.90
2022-12-31T21:25:10.540Z,15.90
2022-12-31T21:27:37.263Z,16.00
2022-12-31T21:30:20.365Z,16.00
2022-12-31T21:32:47.579Z,16.00
2022-12-31T21:35:41.650Z,16.00
2022-12-31T21:38:06.634Z,16.00
2022-12-31T21:40:33.895Z,16.00
2022-12-31T21:43:00.682Z,15.90
2022-12-31T21:45:27.499Z,15.90
2022-12-31T21:48:12.800Z,15.90
2022-12-31T21:50:39.520Z,16.00
2022-12-31T21:53:06.227Z,15.90
2022-12-31T21:55:51.658Z,16.00
2022-12-31T21:58:27.254Z,15.90
2022-12-31T22:01:14.498Z,15.90
2022-12-31T22:03:41.520Z,15.90
2022-12-31T22:06:21.890Z,16.00
2022-12-31T22:08:49.693Z,16.00
2022-12-31T22:11:18.908Z,16.00
2022-12-31T22:13:46.143Z,16.00
2022-12-31T22:16:14.096Z,16.00
2022-12-31T22:18:42.952Z,16.00
2022-12-31T22:21:19.959Z,16.00
2022-12-31T22:23:49.616Z,16.00
2022-12-31T22:26:18.599Z,16.00
2022-12-31T22:28:46.061Z,16.00
2022-12-31T22:31:15.230Z,16.00
2022-12-31T22:33:43.225Z,16.00
2022-12-31T22:36:20.676Z,16.00
2022-12-31T22:38:48.379Z,16.00
2022-12-31T22:41:20.394Z,16.00
2022-12-31T22:43:58.462Z,16.00
2022-12-31T22:46:29.437Z,16.10
2022-12-31T22:48:58.605Z,16.00
2022-12-31T22:51:29.206Z,16.10
2022-12-31T22:54:12.285Z,16.10
2022-12-31T22:56:39.181Z,16.10
2022-12-31T22:59:05.933Z,16.10
2022-12-31T23:01:34.379Z,16.10
2022-12-31T23:04:01.456Z,16.10
2022-12-31T23:06:29.118Z,16.10
2022-12-31T23:09:14.731Z,16.10
2022-12-31T23:11:43.315Z,16.10
2022-12-31T23:14:34.352Z,16.10
2022-12-31T23:17:30.940Z,16.10
2022-12-31T23:20:17.908Z,16.10
2022-12-31T23:23:03.781Z,16.00
2022-12-31T23:25:52.617Z,16.00
2022-12-31T23:28:25.284Z,16.00
2022-12-31T23:30:52.743Z,16.00
2022-12-31T23:33:28.328Z,16.00
2022-12-31T23:36:06.729Z,16.10
2022-12-31T23:38:33.487Z,16.10
2022-12-31T23:41:00.166Z,16.10
2022-12-31T23:43:26.919Z,16.10
2022-12-31T23:45:53.757Z,16.10
2022-12-31T23:48:20.564Z,16.10
2022-12-31T23:50:53.398Z,16.20
2022-12-31T23:53:21.379Z,16.20
2022-12-31T23:55:48.129Z,16.20
2022-12-31T23:58:15.333Z,16.20
